Main page
METAR-TAF:

Airports :

London, England

London City Airport

latitude: 51-30N, longitude: 000-03E, elevation: 5 m

Current weather observation

The report was made 14 minutes ago, at 19:20 UTC
Wind 5 kt from the West/Northwest
Temperature 17°C
Humidity 72%
Pressure 1016 hPa
Visibility 10 km or more

METAR: EGLC 251920Z AUTO 29005KT 9999 SCT040/// 17/12 Q1016 RERA

Time: 20:34 (19:34 UTC)

Forecast

The report was made 11 hours and 30 minutes ago, at 08:04 UTC
Forecast valid from 25 at 09 UTC to 25 at 12 UTC
Wind 6 kt from the West
Visibility 10 km or more
Few clouds at a height of 2500 ft
Probability 40% :
Temporary
from 25 at 10 UTC to 25 at 12 UTC
Visibility: 4000 m
heavy rain showers, thunderstorm, small hail or snow pellets

TAF: EGLC 250804Z 2509/2512 26006KT 9999 FEW025 PROB40 TEMPO 2510/2512 4000 +SHRA TSGS

METAR-TAF

Weather observations and forecasts of more than 4000 airports (METAR and TAF reports).

The available stations are represented by yellow and red dots on the map.

Hover mouse over dot to see the name of the station.

Then click to see weather observations and forecasts.

To change the map : click on the green buttons with a black cross to zoom in, on the green button with a dash to zoom out, or on the green arrows for adjacent maps.


METAR-TAF: